Flood From: 19-02-2018 06:00 Until: 20-02-2018 06:00 warning for: Flood Level: Yellow info button

Although rather usual in this region, locally or potentially dangerous phenomena are expected. (such as local winds, summer thunderstorms, rising streams or high waves) Be aware and pay attention to the latest weather updates, especially if you carry out activities exposed to weather or close to a stream or shoreline. 


Meteo18 Weather Cam more information Meteo18 Weather Cam


Thunder radar more information blitzortung!


Rain radar more information rain snow radar


Visit our other weather sites:

Template documentation
and downloads

And another site



Weather Underground History page Text

Daily Summary for October 31, 2016 Units:  Metric    English   Both
« Previous Day
Next Day »
Daily Weekly Monthly Yearly Custom
  High: Low: Average:
Temperature: -17.8 °C -14.6 °C -12.1 °C
Dew Point: -17.8 °C -15.1 °C -13.3 °C
Humidity: Humidity % 65 % 86 %
Wind Speed: 0 km/h 0 km/h 2.9 km/h
Wind Gust: 0 km/h - -
Wind:- - ENE
Pressure: 0 hPa 34659.1 hPa -
Precipitation: 7.62 mm    
Historical Graphs
 
 
Tabular Data for October 31, 2016
Time Temperature Dew Point Pressure Wind Wind Speed Wind Gust Humidity Rainfall Rate (Hourly)
-17.8 °C -17.8 °C 0 hPa Calm     Humidity % 0 mm
00:02 -12.1 °C -13.3 °C 34740.4 hPa NNE 10.3 km/h 25.9 km/h 87 % 0 mm
00:07 -12.1 °C -13.2 °C 34740.4 hPa NE 5.1 km/h 23.3 km/h 88 % 0 mm
00:17 -12.2 °C -13.2 °C 34740.4 hPa NE 10.3 km/h 23.3 km/h 88 % 0 mm
00:22 -12.2 °C -13.2 °C 34740.4 hPa NNE 2.6 km/h 23.3 km/h 88 % 0 mm
00:37 -12.1 °C -13.2 °C 34726.8 hPa NE 10.3 km/h 23.3 km/h 88 % 0 mm
00:42 -12.1 °C -13.2 °C 34726.8 hPa NE 12.9 km/h 23.3 km/h 88 % 0 mm
00:47 -12.2 °C -13.2 °C 34726.8 hPa NNE 10.3 km/h 23.3 km/h 88 % 0 mm
01:02 -12.4 °C -13.3 °C 34726.8 hPa Calm   20.8 km/h 89 % 0 mm
01:12 -12.6 °C -13.5 °C 34726.8 hPa Calm   20.8 km/h 89 % 0 mm
01:17 -12.6 °C -13.5 °C 34726.8 hPa Calm   10.3 km/h 90 % 0 mm
01:22 -12.7 °C -13.6 °C 34726.8 hPa NNE 2.6 km/h 10.3 km/h 90 % 0 mm
01:32 -12.8 °C -13.7 °C 34726.8 hPa Calm   5.1 km/h 90 % 0 mm
01:42 -12.9 °C -13.7 °C 34726.8 hPa NW 2.6 km/h 7.7 km/h 91 % 0 mm
01:47 -12.9 °C -13.6 °C 34726.8 hPa NW 2.6 km/h 5.1 km/h 92 % 0 mm
01:52 -12.9 °C -13.7 °C 34726.8 hPa WNW 2.6 km/h 5.1 km/h 91 % 0 mm
01:57 -12.9 °C -13.7 °C 34726.8 hPa Calm   5.1 km/h 91 % 0 mm
02:02 -12.9 °C -13.7 °C 34726.8 hPa NW 2.6 km/h 5.1 km/h 91 % 0 mm
02:12 -13 °C -13.7 °C 34726.8 hPa NW 2.6 km/h 5.1 km/h 92 % 0 mm
02:17 -13 °C -13.7 °C 34726.8 hPa Calm   5.1 km/h 92 % 0 mm
02:27 -13.1 °C -13.8 °C 34726.8 hPa Calm   2.6 km/h 92 % 0 mm
02:32 -13.1 °C -13.8 °C 34716.7 hPa Calm   2.6 km/h 92 % 0 mm
02:42 -13.1 °C -13.8 °C 34716.7 hPa Calm   2.6 km/h 92 % 0 mm
02:52 -13.3 °C -14 °C 34716.7 hPa NNE 2.6 km/h 5.1 km/h 92 % 0 mm
03:12 -13.2 °C -13.8 °C 34716.7 hPa Calm   7.7 km/h 93 % 0 mm
03:17 -13.1 °C -13.8 °C 34716.7 hPa NE 5.1 km/h 5.1 km/h 92 % 0 mm
03:22 -13.1 °C -13.8 °C 34703.1 hPa NE 2.6 km/h 7.7 km/h 92 % 0 mm
03:32 -13.2 °C -14 °C 34703.1 hPa Calm   7.7 km/h 91 % 0 mm
03:42 -13.4 °C -14.1 °C 34703.1 hPa Calm   7.7 km/h 92 % 0 mm
03:52 -13.4 °C -14.1 °C 34703.1 hPa North 2.6 km/h 2.6 km/h 92 % 0 mm
04:02 -13.4 °C -14 °C 34703.1 hPa NE 7.7 km/h 7.7 km/h 93 % 0 mm
04:12 -13.2 °C -13.9 °C 34703.1 hPa NE 7.7 km/h 10.3 km/h 92 % 0 mm
04:17 -13.2 °C -14 °C 34703.1 hPa NE 2.6 km/h 15.6 km/h 91 % 0 mm
04:22 -13.2 °C -14 °C 34703.1 hPa NNE 15.6 km/h 15.6 km/h 91 % 0 mm
04:32 -13.3 °C -14.1 °C 34703.1 hPa NE 12.9 km/h 20.8 km/h 91 % 0 mm
04:42 -13.4 °C -14.2 °C 34703.1 hPa NE 5.1 km/h 20.8 km/h 91 % 0 mm
04:52 -13.4 °C -14.2 °C 34716.7 hPa NE 15.6 km/h 20.8 km/h 91 % 0 mm
05:02 -13.5 °C -14.2 °C 34703.1 hPa NE 5.1 km/h 18.2 km/h 92 % 0 mm
05:12 -13.6 °C -14.2 °C 34703.1 hPa NE 7.7 km/h 15.6 km/h 92 % 0 mm
05:17 -13.6 °C -14.2 °C 34703.1 hPa Calm   15.6 km/h 92 % 0 mm
05:22 -13.6 °C -14.2 °C 34716.7 hPa NE 5.1 km/h 18.2 km/h 92 % 0 mm
05:32 -13.6 °C -14.2 °C 34716.7 hPa NE 7.7 km/h 12.9 km/h 92 % 0 mm
05:37 -13.6 °C -14.2 °C 34716.7 hPa NE 5.1 km/h 12.9 km/h 92 % 0 mm
05:47 -13.7 °C -14.3 °C 34716.7 hPa Calm   18.2 km/h 92 % 0 mm
05:52 -13.7 °C -14.4 °C 34716.7 hPa Calm   10.3 km/h 92 % 0 mm
05:57 -13.8 °C -14.4 °C 34716.7 hPa Calm   10.3 km/h 92 % 0 mm
06:02 -13.8 °C -14.5 °C 34716.7 hPa Calm   2.6 km/h 92 % 0 mm
06:12 -13.9 °C -14.6 °C 34716.7 hPa Calm   2.6 km/h 92 % 0 mm
06:17 -13.9 °C -14.6 °C 34703.1 hPa Calm   2.6 km/h 93 % 0 mm
06:22 -13.9 °C -14.6 °C 34716.7 hPa Calm   2.6 km/h 93 % 0 mm
06:27 -14 °C -14.6 °C 34716.7 hPa Calm   2.6 km/h 93 % 0 mm
06:32 -14.1 °C -14.7 °C 34716.7 hPa NE 5.1 km/h 5.1 km/h 93 % 0 mm
06:42 -14 °C -14.5 °C 34703.1 hPa NNE 5.1 km/h 7.7 km/h 94 % 0 mm
06:47 -14.1 °C -14.7 °C 34703.1 hPa NNE 5.1 km/h 7.7 km/h 93 % 0 mm
06:52 -14.1 °C -14.7 °C 34716.7 hPa NE 2.6 km/h 10.3 km/h 93 % 0 mm
06:57 -14.2 °C -14.8 °C 34716.7 hPa NE 2.6 km/h 10.3 km/h 93 % 0 mm
07:02 -14.2 °C -14.7 °C 34716.7 hPa NNE 5.1 km/h 10.3 km/h 94 % 0 mm
07:12 -14.2 °C -14.7 °C 34716.7 hPa NNE 5.1 km/h 10.3 km/h 94 % 0 mm
07:17 -14.2 °C -14.7 °C 34716.7 hPa Calm   10.3 km/h 94 % 0 mm
07:22 -14.3 °C -14.8 °C 34716.7 hPa NE 7.7 km/h 10.3 km/h 94 % 0 mm
07:27 -14.3 °C -14.8 °C 34716.7 hPa Calm   10.3 km/h 94 % 0 mm
07:32 -14.4 °C -14.9 °C 34716.7 hPa Calm   7.7 km/h 94 % 7.62 mm
07:42 -14.6 °C -15.1 °C 34716.7 hPa NNE 2.6 km/h 5.1 km/h 94 % 7.62 mm
07:52 -14.6 °C -14.9 °C 34716.7 hPa NNE 5.1 km/h 5.1 km/h 95 % 7.62 mm
07:57 -14.6 °C -14.9 °C 34716.7 hPa NNE 7.7 km/h 7.7 km/h 95 % 7.62 mm
08:02 -14.5 °C -14.9 °C 34716.7 hPa NNE 10.3 km/h 10.3 km/h 95 % 7.62 mm
08:07 -14.4 °C -14.8 °C 34716.7 hPa NNE 7.7 km/h 7.7 km/h 95 % 7.62 mm
08:12 -14.3 °C -14.7 °C 34716.7 hPa NNE 7.7 km/h 10.3 km/h 95 % 7.62 mm
08:17 -14.3 °C -14.7 °C 34726.8 hPa NE 7.7 km/h 10.3 km/h 95 % 7.62 mm
08:22 -14.3 °C -14.7 °C 34726.8 hPa NNE 7.7 km/h 10.3 km/h 95 % 7.62 mm
08:32 -14.1 °C -14.5 °C 34726.8 hPa NNE 5.1 km/h 7.7 km/h 95 % 0 mm
08:42 -14.1 °C -14.4 °C 34726.8 hPa NNE 5.1 km/h 7.7 km/h 95 % 0 mm
09:02 -13.6 °C -14.1 °C 34726.8 hPa NE 5.1 km/h 5.1 km/h 94 % 0 mm
09:12 -13.4 °C -14.1 °C 34726.8 hPa ENE 5.1 km/h 5.1 km/h 92 % 0 mm
09:17 -13.2 °C -13.9 °C 34726.8 hPa ENE 2.6 km/h 7.7 km/h 92 % 0 mm
09:22 -13.2 °C -13.9 °C 34726.8 hPa ENE 5.1 km/h 7.7 km/h 91 % 0 mm
09:32 -12.9 °C -13.7 °C 34726.8 hPa NE 2.6 km/h 10.3 km/h 91 % 0 mm
09:42 -12.8 °C -13.7 °C 34726.8 hPa East 2.6 km/h 10.3 km/h 90 % 0 mm
09:47 -12.7 °C -13.7 °C 34726.8 hPa East 2.6 km/h 7.7 km/h 89 % 0 mm
09:52 -12.7 °C -13.6 °C 34726.8 hPa East 2.6 km/h 7.7 km/h 89 % 0 mm
10:02 -12.6 °C -13.7 °C 34726.8 hPa ESE 2.6 km/h 7.7 km/h 88 % 0 mm
10:12 -12.5 °C -13.6 °C 34726.8 hPa East 2.6 km/h 10.3 km/h 88 % 0 mm
10:17 -12.4 °C -13.5 °C 34726.8 hPa ENE 2.6 km/h 10.3 km/h 88 % 0 mm
10:22 -12.4 °C -13.6 °C 34726.8 hPa ESE 2.6 km/h 10.3 km/h 87 % 0 mm
10:32 -12.3 °C -13.6 °C 34726.8 hPa NE 2.6 km/h 12.9 km/h 86 % 0 mm
10:47 -11.9 °C -13.2 °C 34716.7 hPa Calm   7.7 km/h 86 % 0 mm
10:52 -11.8 °C -13 °C 34716.7 hPa Calm   7.7 km/h 86 % 0 mm
11:02 -11.6 °C -13.2 °C 34716.7 hPa Calm   2.6 km/h 83 % 0 mm
11:12 -11.6 °C -13.1 °C 34716.7 hPa Calm   5.1 km/h 84 % 0 mm
11:22 -11.5 °C -13.3 °C 34716.7 hPa ENE 12.9 km/h 12.9 km/h 80 % 0 mm
11:32 -11.3 °C -13 °C 34716.7 hPa Calm   18.2 km/h 82 % 0 mm
11:37 -11.2 °C -12.8 °C 34716.7 hPa Calm   18.2 km/h 82 % 0 mm
11:42 -10.9 °C -12.7 °C 34716.7 hPa Calm   12.9 km/h 81 % 0 mm
11:52 -10.9 °C -12.8 °C 34703.1 hPa SSE 2.6 km/h 5.1 km/h 80 % 0 mm
12:02 -10.6 °C -12.6 °C 34703.1 hPa Calm   7.7 km/h 79 % 0 mm
12:12 -10.4 °C -12.6 °C 34703.1 hPa Calm   7.7 km/h 78 % 0 mm
12:17 -10.4 °C -12.6 °C 34703.1 hPa East 5.1 km/h 10.3 km/h 77 % 0 mm
12:27 -10.4 °C -12.6 °C 34703.1 hPa ENE 5.1 km/h 10.3 km/h 77 % 0 mm
12:32 -10.4 °C -12.7 °C 34703.1 hPa East 2.6 km/h 10.3 km/h 76 % 0 mm
12:42 -10.2 °C -12.4 °C 34703.1 hPa East 7.7 km/h 12.9 km/h 77 % 0 mm
12:47 -10.1 °C -12.4 °C 34703.1 hPa ENE 10.3 km/h 12.9 km/h 76 % 0 mm
12:52 -10.1 °C -12.6 °C 34693 hPa East 10.3 km/h 18.2 km/h 74 % 0 mm
12:57 -10.1 °C -12.6 °C 34693 hPa NE 10.3 km/h 18.2 km/h 74 % 0 mm
13:02 -9.9 °C -12.3 °C 34693 hPa East 10.3 km/h 18.2 km/h 75 % 0 mm
13:07 -9.8 °C -12.4 °C 34693 hPa NNE 7.7 km/h 18.2 km/h 74 % 0 mm
13:17 -9.7 °C -12.3 °C 34693 hPa ESE 2.6 km/h 15.6 km/h 74 % 0 mm
13:22 -9.6 °C -12.2 °C 34693 hPa East 5.1 km/h 15.6 km/h 74 % 0 mm
13:32 -9.4 °C -12.1 °C 34682.8 hPa ENE 10.3 km/h 15.6 km/h 73 % 0 mm
13:42 -9.3 °C -12.1 °C 34682.8 hPa Calm   15.6 km/h 72 % 0 mm
13:52 -9.2 °C -12.1 °C 34682.8 hPa ENE 12.9 km/h 12.9 km/h 71 % 0 mm
13:57 -9.2 °C -12.1 °C 34682.8 hPa ENE 2.6 km/h 10.3 km/h 71 % 0 mm
14:02 -9.1 °C -11.9 °C 34682.8 hPa Calm   15.6 km/h 71 % 0 mm
14:07 -9 °C -12.2 °C 34682.8 hPa ESE 5.1 km/h 15.6 km/h 69 % 0 mm
14:12 -8.9 °C -12.1 °C 34669.3 hPa ENE 5.1 km/h 15.6 km/h 69 % 0 mm
14:22 -8.8 °C -12.1 °C 34669.3 hPa ENE 10.3 km/h 12.9 km/h 68 % 0 mm
14:32 -8.7 °C -11.9 °C 34669.3 hPa Calm   10.3 km/h 69 % 0 mm
14:42 -8.5 °C -11.8 °C 34669.3 hPa East 5.1 km/h 10.3 km/h 68 % 0 mm
14:52 -8.4 °C -11.8 °C 34669.3 hPa East 2.6 km/h 10.3 km/h 67 % 0 mm
15:02 -8.3 °C -11.8 °C 34682.8 hPa Calm   10.3 km/h 67 % 0 mm
15:22 -8.3 °C -11.8 °C 34669.3 hPa ENE 5.1 km/h 12.9 km/h 66 % 0 mm
15:32 -8.3 °C -11.9 °C 34669.3 hPa East 2.6 km/h 12.9 km/h 65 % 0 mm
15:42 -8.2 °C -11.9 °C 34669.3 hPa NE 10.3 km/h 12.9 km/h 65 % 0 mm
15:52 -8.2 °C -11.9 °C 34669.3 hPa East 5.1 km/h 12.9 km/h 65 % 0 mm
16:02 -8.3 °C -11.9 °C 34669.3 hPa NE 7.7 km/h 12.9 km/h 65 % 0 mm
16:12 -8.3 °C -11.8 °C 34659.1 hPa ENE 7.7 km/h 15.6 km/h 66 % 0 mm
16:17 -8.3 °C -11.8 °C 34659.1 hPa East 2.6 km/h 15.6 km/h 66 % 0 mm
16:27 -8.3 °C -11.8 °C 34659.1 hPa Calm   12.9 km/h 66 % 0 mm
16:32 -8.3 °C -11.8 °C 34659.1 hPa NE 2.6 km/h 12.9 km/h 66 % 0 mm
16:42 -8.2 °C -11.7 °C 34659.1 hPa Calm   5.1 km/h 67 % 0 mm
16:47 -8.1 °C -11.6 °C 34659.1 hPa Calm   5.1 km/h 67 % 0 mm
16:57 -8.2 °C -11.6 °C 34659.1 hPa Calm     67 % 0 mm
17:02 -8.1 °C -11.4 °C 34669.3 hPa Calm     68 % 0 mm
17:12 -8.3 °C -11.6 °C 34659.1 hPa Calm     68 % 0 mm
17:17 -8.5 °C -11.7 °C 34659.1 hPa Calm     69 % 0 mm
17:22 -8.8 °C -11.8 °C 34659.1 hPa Calm     70 % 0 mm
17:32 -9.2 °C -11.8 °C 34659.1 hPa NE 2.6 km/h   74 % 0 mm
17:42 -9.6 °C -11.9 °C 34659.1 hPa Calm   5.1 km/h 76 % 0 mm
17:47 -9.8 °C -12 °C 34669.3 hPa Calm   5.1 km/h 77 % 0 mm
17:52 -9.9 °C -11.9 °C 34669.3 hPa Calm   5.1 km/h 79 % 0 mm
17:57 -9.9 °C -11.9 °C 34669.3 hPa Calm   2.6 km/h 79 % 0 mm
18:02 -10.1 °C -12.2 °C 34669.3 hPa Calm   2.6 km/h 78 % 0 mm
18:12 -10.4 °C -12.1 °C 34669.3 hPa Calm   2.6 km/h 82 % 0 mm
18:17 -10.4 °C -12.1 °C 34669.3 hPa Calm   2.6 km/h 82 % 0 mm
18:22 -10.4 °C -12.1 °C 34669.3 hPa Calm   2.6 km/h 82 % 0 mm
18:32 -10.7 °C -12.2 °C 34682.8 hPa Calm     83 % 0 mm
18:42 -11.2 °C -12.4 °C 34682.8 hPa Calm   2.6 km/h 86 % 0 mm
18:52 -11.4 °C -12.5 °C 34682.8 hPa Calm   2.6 km/h 88 % 0 mm
19:02 -11.6 °C -12.6 °C 34682.8 hPa Calm   2.6 km/h 88 % 0 mm
19:07 -11.7 °C -12.6 °C 34682.8 hPa Calm     90 % 0 mm
19:17 -11.9 °C -12.8 °C 34682.8 hPa Calm     90 % 0 mm
19:22 -12 °C -12.8 °C 34682.8 hPa Calm     91 % 0 mm
19:42 -12.1 °C -12.8 °C 34682.8 hPa Calm     92 % 0 mm
19:52 -12.2 °C -12.8 °C 34682.8 hPa Calm     93 % 0 mm
19:57 -12.1 °C -12.6 °C 34682.8 hPa Calm     94 % 0 mm
20:07 -11.8 °C -12.4 °C 34682.8 hPa Calm     93 % 0 mm
20:12 -11.7 °C -12.4 °C 34682.8 hPa Calm     92 % 0 mm
20:17 -11.9 °C -12.7 °C 34682.8 hPa Calm     91 % 0 mm
20:27 -12.1 °C -12.7 °C 34682.8 hPa Calm     93 % 0 mm
20:32 -12.3 °C -13 °C 34682.8 hPa Calm     92 % 0 mm
20:42 -12.4 °C -12.9 °C 34682.8 hPa Calm     94 % 0 mm
20:47 -12.4 °C -12.9 °C 34682.8 hPa Calm     94 % 0 mm
20:52 -12.6 °C -13.2 °C 34682.8 hPa Calm     93 % 0 mm
21:02 -12.7 °C -13.2 °C 34682.8 hPa Calm     94 % 0 mm
21:12 -12.8 °C -13.3 °C 34682.8 hPa Calm     94 % 0 mm
21:22 -12.9 °C -13.3 °C 34682.8 hPa Calm     95 % 0 mm
21:27 -12.9 °C -13.3 °C 34682.8 hPa Calm     95 % 0 mm
21:32 -12.9 °C -13.4 °C 34682.8 hPa Calm     95 % 0 mm
21:42 -12.9 °C -13.4 °C 34682.8 hPa Calm     95 % 0 mm
21:52 -13.1 °C -13.5 °C 34682.8 hPa Calm     95 % 0 mm
22:02 -13.1 °C -13.6 °C 34682.8 hPa Calm     95 % 0 mm
22:12 -13.2 °C -13.6 °C 34682.8 hPa Calm     95 % 0 mm
22:17 -13.3 °C -13.7 °C 34682.8 hPa Calm     95 % 0 mm
22:27 -13.4 °C -13.9 °C 34682.8 hPa Calm     95 % 0 mm
22:32 -13.4 °C -13.7 °C 34682.8 hPa Calm     96 % 0 mm
22:42 -13.4 °C -13.7 °C 34682.8 hPa Calm     96 % 0 mm
22:47 -13.4 °C -13.7 °C 34682.8 hPa Calm     96 % 0 mm
22:52 -13.4 °C -13.8 °C 34682.8 hPa Calm     96 % 0 mm
23:02 -13.6 °C -13.9 °C 34682.8 hPa Calm     96 % 0 mm
23:12 -13.7 °C -14 °C 34682.8 hPa Calm     96 % 0 mm
23:17 -13.7 °C -14.1 °C 34682.8 hPa Calm     96 % 0 mm
23:22 -13.8 °C -14.2 °C 34682.8 hPa Calm     96 % 0 mm
23:27 -13.9 °C -14.2 °C 34682.8 hPa Calm     96 % 0 mm
23:37 -13.9 °C -14.1 °C 34669.3 hPa Calm     97 % 0 mm
23:47 -14 °C -14.3 °C 34682.8 hPa Calm     96 % 0 mm
23:52 -14 °C -14.3 °C 34682.8 hPa Calm     96 % 0 mm
Meteo18
Compliments of Weather Underground - 4 mb

Script developed by  Jim McMurry - jmcmurry@mwt.net Adapted for the template by  Wim van der Kuil - Leuven-Template.eu

You find our weather info also at:

European Weather Network

Weather Underground

Equipment we use:

Weather-station
Davis Vue

Weather-program
Meteobridge

Weather-server
Raspberry PI 2 B+

Provider
1 and 1

Davis Vue

Meteobridge

Raspberry PI 2 B+

1 and 1